Time;durP1;ratioP1;P1;durP2;ratioP2;P2;SDS_P1;SDS_P2;PMS_P1;PMS_P2;Temp;Humidity;BMP_temperature;BMP_pressure;BME280_temperature;BME280_humidity;BME280_pressure;Samples;Min_cycle;Max_cycle;Signal;HPM_P1;HPM_P2
2022/09/08 00:00:10;;;;;;;0.70;0.70;;;21.90;60.40;;;;;;6215662;28;20029;-72
2022/09/08 00:03:17;;;;;;;1.05;0.60;;;21.90;60.40;;;;;;6217986;28;20143;-72
2022/09/08 00:06:18;;;;;;;0.50;0.50;;;21.90;60.40;;;;;;6217991;28;20022;-72
2022/09/08 00:09:19;;;;;;;0.50;0.50;;;21.90;60.40;;;;;;6219265;28;20517;-72
2022/09/08 00:12:20;;;;;;;0.88;0.60;;;21.90;60.40;;;;;;6219104;28;20018;-72
2022/09/08 00:15:21;;;;;;;0.70;0.63;;;21.90;60.40;;;;;;6217594;28;20081;-72
2022/09/08 00:18:23;;;;;;;0.80;0.70;;;21.90;60.40;;;;;;6217734;28;20125;-72
2022/09/08 00:21:26;;;;;;;0.70;0.52;;;21.90;60.40;;;;;;6217403;28;20533;-72
2022/09/08 00:24:26;;;;;;;0.75;0.63;;;21.90;60.40;;;;;;6217717;28;20015;-72
2022/09/08 00:27:27;;;;;;;0.60;0.60;;;21.90;60.40;;;;;;6217264;28;20392;-72
2022/09/08 00:30:27;;;;;;;0.50;0.50;;;21.90;60.40;;;;;;6216996;28;20115;-72
2022/09/08 00:33:29;;;;;;;0.50;0.50;;;21.90;60.40;;;;;;6217039;28;20040;-72
2022/09/08 00:36:31;;;;;;;0.60;0.50;;;21.90;60.50;;;;;;6217232;28;20120;-72
2022/09/08 00:39:32;;;;;;;0.60;0.40;;;21.90;60.40;;;;;;6222429;28;20483;-72
2022/09/08 00:42:32;;;;;;;0.60;0.60;;;21.90;60.40;;;;;;6217328;28;20106;-72
2022/09/08 00:45:37;;;;;;;0.70;0.60;;;21.90;60.50;;;;;;6216808;28;20694;-72
2022/09/08 00:48:46;;;;;;;1.20;0.73;;;21.90;60.40;;;;;;6222841;28;20037;-72
2022/09/08 00:51:49;;;;;;;0.45;0.45;;;21.90;60.50;;;;;;6216775;28;20026;-72
2022/09/08 00:54:50;;;;;;;0.80;0.68;;;21.90;60.40;;;;;;6216769;28;20029;-72
2022/09/08 00:57:51;;;;;;;0.57;0.57;;;21.90;60.40;;;;;;6216617;28;20018;-72
2022/09/08 01:00:51;;;;;;;0.73;0.70;;;21.90;60.40;;;;;;6217055;28;20484;-72
2022/09/08 01:03:52;;;;;;;0.90;0.70;;;21.90;60.40;;;;;;6216352;28;20034;-72
2022/09/08 01:14:01;;;;;;;1.10;0.68;;;21.90;60.50;;;;;;6216209;28;20527;-72
2022/09/08 01:17:17;;;;;;;0.60;0.60;;;21.90;60.40;;;;;;6216405;28;20075;-72
2022/09/08 01:20:21;;;;;;;0.75;0.60;;;21.90;60.40;;;;;;6215334;28;20021;-72
2022/09/08 01:23:46;;;;;;;0.70;0.60;;;21.90;60.40;;;;;;6216521;28;20755;-72
2022/09/08 01:27:21;;;;;;;1.15;0.60;;;21.90;60.40;;;;;;6216479;28;20054;-72
2022/09/08 01:30:22;;;;;;;0.75;0.60;;;21.90;60.50;;;;;;6216124;28;20033;-72
2022/09/08 01:33:22;;;;;;;0.70;0.63;;;21.90;60.40;;;;;;6215789;28;20071;-71
2022/09/08 01:36:23;;;;;;;0.52;0.52;;;21.90;60.50;;;;;;6216299;28;20057;-72
2022/09/08 01:39:23;;;;;;;0.82;0.70;;;21.90;60.50;;;;;;6216189;28;20026;-72
2022/09/08 01:42:24;;;;;;;0.57;0.55;;;21.90;60.40;;;;;;6215909;28;20054;-72
2022/09/08 01:45:27;;;;;;;0.60;0.52;;;21.90;60.40;;;;;;6217161;28;20033;-72
2022/09/08 01:48:28;;;;;;;0.70;0.60;;;21.90;60.50;;;;;;6215903;28;20026;-72
2022/09/08 01:51:28;;;;;;;0.60;0.60;;;21.90;60.50;;;;;;6217380;28;20472;-72
2022/09/08 01:54:29;;;;;;;0.75;0.60;;;21.90;60.40;;;;;;6216896;28;20111;-72
2022/09/08 01:57:31;;;;;;;0.88;0.50;;;21.90;60.50;;;;;;6216447;28;20098;-72
2022/09/08 02:00:31;;;;;;;0.52;0.50;;;21.90;60.60;;;;;;6216702;28;20033;-72
2022/09/08 02:03:32;;;;;;;0.80;0.77;;;21.90;61.40;;;;;;6215398;28;20030;-72
2022/09/08 02:06:33;;;;;;;0.52;0.50;;;21.90;60.60;;;;;;6215296;28;20100;-72
2022/09/08 02:09:33;;;;;;;1.38;0.70;;;21.90;60.50;;;;;;6221957;28;20492;-72
2022/09/08 02:12:34;;;;;;;0.60;0.60;;;21.90;60.60;;;;;;6215522;28;20100;-72
2022/09/08 02:15:35;;;;;;;2.22;0.70;;;21.90;60.50;;;;;;6215085;28;20041;-72
2022/09/08 02:18:35;;;;;;;0.70;0.57;;;21.90;60.50;;;;;;6215356;28;20026;-72
2022/09/08 02:21:36;;;;;;;0.70;0.63;;;21.90;60.50;;;;;;6215082;28;20548;-72
2022/09/08 02:24:37;;;;;;;1.00;0.60;;;21.90;60.60;;;;;;6215102;28;20360;-73
2022/09/08 02:27:37;;;;;;;0.73;0.50;;;21.90;60.50;;;;;;6216595;28;20022;-72
2022/09/08 02:30:38;;;;;;;0.50;0.50;;;21.90;60.50;;;;;;6216614;28;20030;-72
2022/09/08 02:33:40;;;;;;;0.80;0.70;;;21.90;60.50;;;;;;6214958;28;20112;-72
2022/09/08 02:36:40;;;;;;;0.70;0.60;;;21.90;60.50;;;;;;6214759;28;20025;-72
2022/09/08 02:39:41;;;;;;;1.17;0.70;;;21.90;60.50;;;;;;6216068;28;20710;-72
2022/09/08 02:42:44;;;;;;;0.47;0.47;;;21.90;60.50;;;;;;6216503;28;20420;-73
2022/09/08 02:45:46;;;;;;;0.68;0.63;;;21.90;60.50;;;;;;6216177;28;20034;-72
2022/09/08 02:48:47;;;;;;;0.77;0.60;;;21.90;60.60;;;;;;6216248;28;20121;-72
2022/09/08 02:51:47;;;;;;;0.70;0.60;;;21.90;60.50;;;;;;6215834;28;20561;-72
2022/09/08 02:54:48;;;;;;;0.63;0.60;;;21.90;60.50;;;;;;6216184;28;20033;-72
2022/09/08 02:57:49;;;;;;;0.73;0.73;;;21.90;60.50;;;;;;6215795;28;20404;-72
2022/09/08 03:00:49;;;;;;;0.65;0.52;;;21.90;60.60;;;;;;6216230;28;20037;-72
2022/09/08 03:03:50;;;;;;;0.77;0.70;;;21.90;60.50;;;;;;6215373;28;20033;-72
2022/09/08 03:06:51;;;;;;;2.15;0.70;;;21.90;60.50;;;;;;6216257;28;20487;-73
2022/09/08 03:09:52;;;;;;;0.90;0.65;;;21.90;60.50;;;;;;6214437;28;20026;-72
2022/09/08 03:12:54;;;;;;;0.80;0.60;;;21.90;60.50;;;;;;6215840;28;20040;-72
2022/09/08 03:15:55;;;;;;;0.57;0.57;;;21.90;60.50;;;;;;6215751;28;20060;-72
2022/09/08 03:18:55;;;;;;;0.80;0.55;;;21.90;60.50;;;;;;6215748;28;20491;-72
2022/09/08 03:21:56;;;;;;;0.70;0.70;;;21.90;60.50;;;;;;6215888;28;20053;-72
2022/09/08 03:24:57;;;;;;;0.85;0.73;;;21.90;60.60;;;;;;6213957;28;20029;-73
2022/09/08 03:27:57;;;;;;;0.68;0.60;;;21.90;60.60;;;;;;6213956;28;20034;-72
2022/09/08 03:30:58;;;;;;;0.82;0.60;;;21.90;60.50;;;;;;6213038;28;20088;-72
2022/09/08 03:33:59;;;;;;;0.70;0.60;;;21.90;60.60;;;;;;6214269;28;20036;-72
2022/09/08 03:36:59;;;;;;;0.70;0.70;;;21.90;60.50;;;;;;6218570;28;20037;-72
2022/09/08 03:40:02;;;;;;;0.52;0.52;;;21.90;60.60;;;;;;6218346;28;20375;-72
2022/09/08 03:43:05;;;;;;;0.95;0.60;;;21.90;60.60;;;;;;6217090;28;20050;-72
2022/09/08 03:46:09;;;;;;;0.90;0.70;;;21.90;60.50;;;;;;6217756;28;20021;-72
2022/09/08 03:49:11;;;;;;;0.80;0.57;;;21.90;60.60;;;;;;6217940;28;20056;-71
2022/09/08 03:52:12;;;;;;;0.85;0.52;;;21.90;60.50;;;;;;6218611;28;20050;-72
2022/09/08 03:55:12;;;;;;;0.47;0.47;;;21.90;61.40;;;;;;6217467;28;20030;-72
2022/09/08 03:58:13;;;;;;;0.43;0.40;;;21.90;60.60;;;;;;6217937;28;20029;-72
2022/09/08 04:01:17;;;;;;;0.65;0.60;;;21.90;60.60;;;;;;6218158;28;20022;-72
2022/09/08 04:04:17;;;;;;;0.85;0.70;;;21.90;60.50;;;;;;6217642;28;20084;-72
2022/09/08 04:07:19;;;;;;;0.80;0.70;;;21.90;60.60;;;;;;6217499;28;20062;-72
2022/09/08 04:10:20;;;;;;;0.65;0.55;;;21.90;60.60;;;;;;6218275;28;20376;-72
2022/09/08 04:13:20;;;;;;;0.60;0.60;;;21.90;60.60;;;;;;6217685;28;20029;-72
2022/09/08 04:16:21;;;;;;;0.60;0.60;;;21.90;60.60;;;;;;6218933;28;20021;-72
2022/09/08 04:19:22;;;;;;;0.90;0.63;;;21.90;60.60;;;;;;6218468;28;20492;-72
2022/09/08 04:22:23;;;;;;;1.70;0.70;;;21.90;60.60;;;;;;6219348;28;20061;-72
2022/09/08 04:25:24;;;;;;;1.02;0.70;;;21.90;60.60;;;;;;6216713;28;20491;-72
2022/09/08 04:28:25;;;;;;;0.73;0.63;;;21.90;60.60;;;;;;6217095;28;20025;-72
2022/09/08 04:31:26;;;;;;;1.13;0.73;;;21.90;60.60;;;;;;6217317;28;20026;-72
2022/09/08 04:34:26;;;;;;;0.85;0.68;;;21.90;60.60;;;;;;6223240;28;20042;-72
2022/09/08 04:37:27;;;;;;;0.50;0.50;;;21.90;60.60;;;;;;6217261;28;20041;-72
2022/09/08 04:40:27;;;;;;;1.02;0.85;;;21.90;60.60;;;;;;6216979;28;20097;-72
2022/09/08 04:43:28;;;;;;;0.68;0.65;;;21.90;60.60;;;;;;6216897;28;20498;-72
2022/09/08 04:46:30;;;;;;;0.70;0.70;;;21.90;60.60;;;;;;6215942;28;20036;-72
2022/09/08 04:49:30;;;;;;;0.98;0.60;;;21.90;60.60;;;;;;6216854;28;20052;-72
2022/09/08 04:52:31;;;;;;;0.90;0.50;;;21.90;60.60;;;;;;6217761;28;20050;-72
2022/09/08 04:55:31;;;;;;;0.65;0.60;;;21.90;61.10;;;;;;6217129;28;20361;-72
2022/09/08 04:58:34;;;;;;;0.65;0.63;;;21.90;60.60;;;;;;6216782;28;20034;-72
2022/09/08 05:01:35;;;;;;;0.70;0.60;;;21.90;60.60;;;;;;6216478;28;20170;-72
2022/09/08 05:04:37;;;;;;;0.82;0.60;;;21.90;60.60;;;;;;6200200;28;20365;-72
2022/09/08 05:07:38;;;;;;;1.25;0.80;;;21.90;60.60;;;;;;6217563;28;20431;-72
2022/09/08 05:10:38;;;;;;;0.85;0.70;;;21.90;60.60;;;;;;6216730;28;20040;-72
2022/09/08 05:13:40;;;;;;;0.52;0.52;;;21.90;60.60;;;;;;6217274;28;20026;-72
2022/09/08 05:16:40;;;;;;;1.05;0.77;;;21.90;60.60;;;;;;6216671;28;20022;-72
2022/09/08 05:19:41;;;;;;;0.50;0.50;;;21.90;60.60;;;;;;6216154;28;20072;-72
2022/09/08 05:22:41;;;;;;;0.57;0.57;;;21.90;60.60;;;;;;6216415;28;20392;-72
2022/09/08 05:25:42;;;;;;;0.75;0.60;;;21.90;60.60;;;;;;6215829;28;20147;-72
2022/09/08 05:28:43;;;;;;;0.85;0.50;;;21.90;60.60;;;;;;6216267;28;20057;-72
2022/09/08 05:31:44;;;;;;;1.13;0.60;;;21.90;60.60;;;;;;6216302;28;20636;-72
2022/09/08 05:34:44;;;;;;;0.65;0.60;;;21.90;60.60;;;;;;6215432;28;20037;-72
2022/09/08 05:37:45;;;;;;;0.80;0.70;;;21.90;60.60;;;;;;6216834;28;20389;-72
2022/09/08 05:40:46;;;;;;;0.63;0.55;;;21.90;60.60;;;;;;6215656;28;20018;-72
2022/09/08 05:43:47;;;;;;;0.75;0.60;;;21.90;60.60;;;;;;6215286;28;20053;-72
2022/09/08 05:46:47;;;;;;;0.60;0.60;;;21.90;60.60;;;;;;6215961;28;20203;-72
2022/09/08 05:49:48;;;;;;;0.88;0.73;;;21.90;60.60;;;;;;6215968;28;20354;-72
2022/09/08 05:52:48;;;;;;;0.63;0.60;;;21.90;60.60;;;;;;6214321;28;20038;-72
2022/09/08 05:55:59;;;;;;;0.77;0.73;;;21.90;60.60;;;;;;6215685;28;20025;-72
2022/09/08 05:59:00;;;;;;;0.65;0.60;;;21.90;60.60;;;;;;6214193;28;20357;-72
2022/09/08 06:02:01;;;;;;;0.75;0.60;;;21.90;60.60;;;;;;6217026;28;20038;-73
2022/09/08 06:05:02;;;;;;;1.90;0.80;;;21.90;60.60;;;;;;6208552;28;20026;-72
2022/09/08 06:08:02;;;;;;;0.70;0.60;;;21.90;60.60;;;;;;6218846;28;20101;-73
2022/09/08 06:11:03;;;;;;;0.65;0.60;;;21.90;60.60;;;;;;6218482;28;20030;-72
2022/09/08 06:14:05;;;;;;;0.68;0.60;;;21.90;60.60;;;;;;6224824;28;20426;-72
2022/09/08 06:17:06;;;;;;;1.15;0.80;;;21.90;60.60;;;;;;6218643;28;20037;-72
2022/09/08 06:20:08;;;;;;;0.70;0.60;;;21.90;60.60;;;;;;6218409;28;20070;-72
2022/09/08 06:23:09;;;;;;;0.80;0.60;;;21.90;60.60;;;;;;6218662;28;20048;-72
2022/09/08 06:26:15;;;;;;;0.70;0.40;;;21.90;60.60;;;;;;6217643;28;20026;-72
2022/09/08 06:29:19;;;;;;;0.55;0.50;;;21.90;60.60;;;;;;6218749;28;20075;-72
2022/09/08 06:32:28;;;;;;;0.95;0.60;;;21.90;60.60;;;;;;6218392;28;20061;-72
2022/09/08 06:35:50;;;;;;;0.80;0.65;;;21.90;60.60;;;;;;6218046;28;20026;-71
2022/09/08 06:38:59;;;;;;;0.88;0.65;;;21.90;60.60;;;;;;6218861;28;20024;-73
2022/09/08 06:42:10;;;;;;;0.88;0.50;;;21.90;60.60;;;;;;6217799;28;20511;-72
2022/09/08 06:45:20;;;;;;;0.98;0.70;;;21.90;60.60;;;;;;6217366;28;20527;-72
2022/09/08 06:48:32;;;;;;;0.82;0.73;;;21.90;60.60;;;;;;6193325;28;20126;-72
2022/09/08 06:51:42;;;;;;;0.70;0.70;;;21.90;60.60;;;;;;6203058;28;20049;-72
2022/09/08 06:55:14;;;;;;;0.65;0.63;;;21.90;60.60;;;;;;6217486;28;20531;-72
2022/09/08 06:58:27;;;;;;;0.85;0.70;;;21.90;60.60;;;;;;6218000;28;20030;-72
2022/09/08 07:01:44;;;;;;;0.63;0.60;;;21.90;60.60;;;;;;6217934;28;20014;-72
2022/09/08 07:05:02;;;;;;;1.27;0.50;;;21.90;60.60;;;;;;6217869;28;20029;-71
2022/09/08 07:08:26;;;;;;;0.75;0.60;;;21.90;60.60;;;;;;6217844;28;20030;-72
2022/09/08 07:11:45;;;;;;;0.77;0.63;;;21.90;60.60;;;;;;6218115;28;20063;-72
2022/09/08 07:15:02;;;;;;;0.88;0.75;;;21.90;60.60;;;;;;6217640;28;20112;-72
2022/09/08 07:18:21;;;;;;;0.60;0.60;;;21.90;60.60;;;;;;6217880;28;20036;-72
2022/09/08 07:21:28;;;;;;;0.65;0.65;;;21.90;60.60;;;;;;6217740;28;20026;-73
2022/09/08 07:24:34;;;;;;;0.70;0.63;;;21.90;60.60;;;;;;6217768;28;20064;-71
2022/09/08 07:27:38;;;;;;;0.73;0.60;;;21.90;60.60;;;;;;6217562;28;20030;-72
2022/09/08 07:30:40;;;;;;;0.63;0.57;;;21.90;60.50;;;;;;6217725;28;20038;-72
2022/09/08 07:33:42;;;;;;;0.85;0.65;;;21.90;60.60;;;;;;6217282;28;20022;-72
2022/09/08 07:37:11;;;;;;;1.00;0.80;;;21.90;60.60;;;;;;6223414;28;20060;-72
2022/09/08 07:40:31;;;;;;;1.45;0.80;;;21.90;60.60;;;;;;6239155;28;20072;-72
2022/09/08 07:43:32;;;;;;;0.60;0.60;;;21.90;60.60;;;;;;6216914;28;20050;-72
2022/09/08 07:46:45;;;;;;;1.17;0.80;;;21.90;60.60;;;;;;6217694;28;20384;-73
2022/09/08 07:50:10;;;;;;;1.30;0.80;;;21.90;60.60;;;;;;6217389;28;20026;-72
2022/09/08 07:53:35;;;;;;;1.63;0.80;;;21.90;60.60;;;;;;6217396;28;20480;-72
2022/09/08 07:56:42;;;;;;;0.70;0.70;;;21.90;60.60;;;;;;6216704;28;20114;-72
2022/09/08 08:00:31;;;;;;;0.95;0.73;;;21.90;60.60;;;;;;6217652;28;20083;-72
2022/09/08 08:03:52;;;;;;;0.60;0.60;;;21.90;60.60;;;;;;6217193;28;20026;-73
2022/09/08 08:06:55;;;;;;;0.85;0.73;;;21.90;60.60;;;;;;6217013;28;20473;-72
2022/09/08 08:10:09;;;;;;;1.00;0.88;;;21.90;60.50;;;;;;6217248;28;20534;-72
2022/09/08 08:13:29;;;;;;;0.95;0.70;;;21.90;60.60;;;;;;6223322;28;20037;-72
2022/09/08 08:16:52;;;;;;;1.13;0.70;;;21.90;60.60;;;;;;6216534;28;20042;-72
2022/09/08 08:20:11;;;;;;;1.13;0.60;;;21.90;60.60;;;;;;6193255;28;20045;-72
2022/09/08 08:23:27;;;;;;;0.70;0.70;;;21.90;60.60;;;;;;6220349;28;20022;-72
2022/09/08 08:27:10;;;;;;;0.70;0.70;;;21.90;60.50;;;;;;6220753;28;20494;-73
2022/09/08 08:30:21;;;;;;;1.27;0.60;;;21.90;60.50;;;;;;6213499;28;20109;-72
2022/09/08 08:33:28;;;;;;;1.33;0.80;;;21.90;60.50;;;;;;6221019;28;20026;-72
2022/09/08 08:36:32;;;;;;;1.17;0.90;;;21.90;60.60;;;;;;6220207;28;20471;-72
2022/09/08 08:39:36;;;;;;;0.82;0.65;;;21.90;60.60;;;;;;6220791;28;20037;-72
2022/09/08 08:42:45;;;;;;;0.90;0.60;;;21.90;60.60;;;;;;6220217;28;20492;-72
2022/09/08 08:46:10;;;;;;;0.63;0.60;;;21.90;60.60;;;;;;6220419;28;20030;-72
2022/09/08 08:49:23;;;;;;;0.98;0.70;;;21.90;60.60;;;;;;6220658;28;20432;-72
2022/09/08 08:52:34;;;;;;;0.60;0.60;;;21.90;60.60;;;;;;6220149;28;20018;-73
2022/09/08 08:55:49;;;;;;;1.67;0.82;;;21.90;60.60;;;;;;6218503;28;20132;-72
2022/09/08 08:59:18;;;;;;;0.93;0.80;;;21.90;60.50;;;;;;6220306;28;20354;-72
2022/09/08 09:02:34;;;;;;;1.38;0.80;;;21.90;60.50;;;;;;6220623;28;20022;-72
2022/09/08 09:05:47;;;;;;;0.90;0.70;;;21.90;60.60;;;;;;6208259;28;20068;-72
2022/09/08 09:09:20;;;;;;;0.93;0.77;;;21.90;60.50;;;;;;6219940;28;20030;-72
2022/09/08 09:12:28;;;;;;;0.65;0.65;;;21.90;60.60;;;;;;6224958;28;20054;-72
2022/09/08 09:15:50;;;;;;;0.90;0.65;;;21.90;60.50;;;;;;6220040;28;20107;-73
2022/09/08 09:19:19;;;;;;;1.17;0.80;;;21.90;60.60;;;;;;6219580;28;20132;-71
2022/09/08 09:22:35;;;;;;;1.00;0.63;;;21.90;60.60;;;;;;6220138;28;20019;-72
2022/09/08 09:25:43;;;;;;;0.80;0.60;;;21.90;60.60;;;;;;6219712;28;20026;-72
2022/09/08 09:29:09;;;;;;;0.98;0.80;;;21.90;60.60;;;;;;6220130;28;20392;-72
2022/09/08 09:32:35;;;;;;;1.13;0.80;;;21.90;60.60;;;;;;6219180;28;20022;-72
2022/09/08 09:36:29;;;;;;;1.00;0.70;;;21.90;60.60;;;;;;6219408;28;20038;-73
2022/09/08 09:39:44;;;;;;;0.80;0.70;;;21.90;60.60;;;;;;6242713;28;20038;-72
2022/09/08 09:43:03;;;;;;;0.93;0.73;;;21.90;60.60;;;;;;6219608;28;20042;-72
2022/09/08 09:46:28;;;;;;;0.88;0.80;;;21.90;60.50;;;;;;6218811;28;20034;-72
2022/09/08 09:49:47;;;;;;;1.20;0.80;;;21.90;60.50;;;;;;6218204;28;20060;-72
2022/09/08 09:53:02;;;;;;;1.40;0.82;;;21.90;60.50;;;;;;6219244;28;20049;-72
2022/09/08 09:56:25;;;;;;;0.73;0.68;;;21.90;60.60;;;;;;6219131;28;20030;-72
2022/09/08 09:59:41;;;;;;;1.63;0.82;;;21.90;60.60;;;;;;6219244;28;20026;-72
2022/09/08 10:03:09;;;;;;;1.45;0.90;;;21.90;60.60;;;;;;6219129;28;20430;-72
2022/09/08 10:06:09;;;;;;;1.33;0.80;;;21.90;60.60;;;;;;6218734;28;20029;-73
2022/09/08 10:09:47;;;;;;;0.80;0.73;;;21.90;60.50;;;;;;6218983;28;20105;-72
2022/09/08 10:13:08;;;;;;;1.27;0.90;;;21.90;60.60;;;;;;6219002;28;20030;-72
2022/09/08 10:16:38;;;;;;;1.65;0.90;;;21.90;60.50;;;;;;6218933;28;20034;-72
2022/09/08 10:20:17;;;;;;;1.13;0.80;;;21.90;60.50;;;;;;6218542;28;20053;-72
2022/09/08 10:23:20;;;;;;;0.98;0.82;;;21.90;60.40;;;;;;6291404;28;20058;-72
2022/09/08 10:26:42;;;;;;;0.70;0.70;;;21.90;60.40;;;;;;6218105;28;20033;-72
2022/09/08 10:29:48;;;;;;;1.35;0.77;;;21.90;60.50;;;;;;6218541;28;20073;-72
2022/09/08 10:33:26;;;;;;;0.93;0.73;;;22.00;60.80;;;;;;6218149;28;20025;-72
2022/09/08 10:36:33;;;;;;;1.45;0.90;;;21.90;60.60;;;;;;6218098;28;20034;-72
2022/09/08 10:39:57;;;;;;;1.42;1.10;;;21.90;60.80;;;;;;6218676;28;20089;-73
2022/09/08 10:43:14;;;;;;;2.17;1.00;;;21.90;60.90;;;;;;6217871;28;20617;-72
2022/09/08 10:46:40;;;;;;;1.60;1.00;;;22.00;61.00;;;;;;6217924;28;20037;-72
2022/09/08 10:50:23;;;;;;;2.08;1.10;;;22.00;61.00;;;;;;6218516;28;20030;-72
2022/09/08 10:53:28;;;;;;;1.30;1.10;;;21.90;60.90;;;;;;6217883;28;20028;-72
2022/09/08 10:56:30;;;;;;;1.48;0.98;;;21.90;60.90;;;;;;6217941;28;20038;-72
2022/09/08 10:59:39;;;;;;;0.93;0.68;;;22.00;60.90;;;;;;6217964;28;20064;-72
2022/09/08 11:03:17;;;;;;;1.27;0.80;;;21.90;60.70;;;;;;6218015;28;20022;-73
2022/09/08 11:06:50;;;;;;;0.82;0.68;;;21.90;60.60;;;;;;6217614;28;20034;-72
2022/09/08 11:10:29;;;;;;;0.98;0.65;;;21.90;60.70;;;;;;6217679;28;20022;-72
2022/09/08 11:13:56;;;;;;;1.38;0.93;;;22.00;60.80;;;;;;6240446;28;20038;-72
2022/09/08 11:17:09;;;;;;;1.50;0.80;;;22.00;60.70;;;;;;6227812;28;20038;-72
2022/09/08 11:20:16;;;;;;;1.67;1.17;;;22.00;60.80;;;;;;6217821;28;20357;-72
2022/09/08 11:23:26;;;;;;;1.38;0.80;;;22.00;60.70;;;;;;6217855;28;20125;-73
2022/09/08 11:26:36;;;;;;;1.30;0.95;;;22.00;60.70;;;;;;6217572;28;20415;-73
2022/09/08 11:29:38;;;;;;;1.00;0.70;;;22.00;60.80;;;;;;6217396;28;20062;-72
2022/09/08 11:32:56;;;;;;;1.70;0.90;;;22.00;60.90;;;;;;6217316;28;20493;-73
2022/09/08 11:36:26;;;;;;;1.00;0.80;;;22.00;60.80;;;;;;6217510;28;20091;-72
2022/09/08 11:40:07;;;;;;;1.23;1.02;;;22.00;60.70;;;;;;6230578;28;20042;-72
2022/09/08 11:43:25;;;;;;;1.10;0.90;;;22.00;60.80;;;;;;6192643;28;20038;-72
2022/09/08 11:46:50;;;;;;;1.77;1.10;;;22.00;60.80;;;;;;6217255;28;20033;-72
2022/09/08 11:50:06;;;;;;;1.10;0.90;;;22.00;60.80;;;;;;6217128;28;20029;-72
2022/09/08 11:53:24;;;;;;;1.25;0.90;;;22.00;60.80;;;;;;6216805;28;20219;-72
2022/09/08 11:56:47;;;;;;;1.85;1.02;;;22.00;60.80;;;;;;6220273;28;20094;-72
2022/09/08 12:00:11;;;;;;;0.90;0.68;;;22.00;60.80;;;;;;6221135;28;20080;-72
2022/09/08 12:03:53;;;;;;;1.15;0.70;;;22.00;60.80;;;;;;6228576;28;20034;-72
2022/09/08 12:07:26;;;;;;;1.20;0.98;;;22.00;60.80;;;;;;6221234;28;20014;-73
2022/09/08 12:10:35;;;;;;;1.67;1.13;;;22.00;60.80;;;;;;6221286;28;20079;-72
2022/09/08 12:13:42;;;;;;;1.63;1.20;;;22.00;61.00;;;;;;6226895;28;20101;-72
2022/09/08 12:16:57;;;;;;;1.13;0.98;;;22.00;61.00;;;;;;6221051;28;20460;-72
2022/09/08 12:20:26;;;;;;;1.10;1.00;;;22.00;61.00;;;;;;6219410;28;20427;-72
2022/09/08 12:24:00;;;;;;;1.38;1.10;;;22.00;61.10;;;;;;6221035;28;20435;-71
2022/09/08 12:27:39;;;;;;;1.33;0.80;;;22.00;61.10;;;;;;6220918;28;20026;-72
2022/09/08 12:31:06;;;;;;;1.35;1.02;;;22.00;60.80;;;;;;6221146;28;20026;-72
2022/09/08 12:34:29;;;;;;;1.55;1.10;;;22.00;60.80;;;;;;6204049;28;20022;-72
2022/09/08 12:37:49;;;;;;;1.00;0.80;;;22.00;60.70;;;;;;6250146;28;20118;-72
2022/09/08 12:41:18;;;;;;;1.30;0.90;;;22.00;60.70;;;;;;6220753;28;20034;-72
2022/09/08 12:44:41;;;;;;;2.28;1.10;;;22.00;60.70;;;;;;6202790;28;20054;-72
2022/09/08 12:48:03;;;;;;;1.52;0.90;;;22.00;60.80;;;;;;6219532;28;20390;-72
2022/09/08 12:51:24;;;;;;;2.03;1.17;;;22.00;60.80;;;;;;6220612;28;20026;-72
2022/09/08 12:54:40;;;;;;;1.67;0.90;;;22.00;60.80;;;;;;6195972;28;20045;-72
2022/09/08 12:57:54;;;;;;;1.17;0.93;;;22.00;60.80;;;;;;6206778;28;20049;-72
2022/09/08 13:01:01;;;;;;;1.15;1.02;;;22.00;61.10;;;;;;6222700;28;20030;-72
2022/09/08 13:04:20;;;;;;;1.65;1.00;;;22.00;61.10;;;;;;6224387;28;20026;-73
2022/09/08 13:07:43;;;;;;;1.83;1.10;;;22.00;61.20;;;;;;6219310;28;20025;-72
2022/09/08 13:10:46;;;;;;;2.08;1.17;;;22.00;61.10;;;;;;6219035;28;20040;-72
2022/09/08 13:13:48;;;;;;;4.28;1.23;;;22.00;61.00;;;;;;6219568;28;20112;-72
2022/09/08 13:17:11;;;;;;;1.05;0.85;;;22.00;60.90;;;;;;6220429;28;20022;-72
2022/09/08 13:20:30;;;;;;;1.10;0.93;;;22.00;60.80;;;;;;6219836;28;20056;-72
2022/09/08 13:23:44;;;;;;;1.30;0.90;;;22.00;60.80;;;;;;6219468;28;20136;-72
2022/09/08 13:27:03;;;;;;;1.30;0.95;;;22.00;60.80;;;;;;6219480;28;20096;-72
2022/09/08 13:30:11;;;;;;;1.00;0.82;;;22.00;60.70;;;;;;6195376;28;20029;-72
2022/09/08 13:33:39;;;;;;;1.25;0.90;;;22.00;60.70;;;;;;6205328;28;20014;-72
2022/09/08 13:36:49;;;;;;;1.92;1.02;;;22.00;60.70;;;;;;6219815;28;20030;-72
2022/09/08 13:40:17;;;;;;;1.23;0.90;;;22.00;60.60;;;;;;6219639;28;20022;-72
2022/09/08 13:43:25;;;;;;;0.75;0.70;;;22.00;60.60;;;;;;6219917;28;20033;-72
2022/09/08 13:46:37;;;;;;;1.17;0.98;;;22.00;60.60;;;;;;6219277;28;20030;-72
2022/09/08 13:50:16;;;;;;;0.85;0.80;;;22.00;60.60;;;;;;6219330;28;20111;-72
2022/09/08 13:53:32;;;;;;;1.42;1.00;;;22.00;60.60;;;;;;6218213;28;20057;-72
2022/09/08 13:56:53;;;;;;;1.33;0.88;;;22.00;60.60;;;;;;6219608;28;20087;-72
2022/09/08 14:00:09;;;;;;;1.80;1.20;;;22.00;60.60;;;;;;6229077;28;20103;-72
2022/09/08 14:03:12;;;;;;;1.55;1.00;;;22.00;60.60;;;;;;6218899;28;20071;-72
2022/09/08 14:06:15;;;;;;;1.20;0.95;;;22.00;60.60;;;;;;6224594;28;20040;-72
2022/09/08 14:09:23;;;;;;;1.27;0.98;;;22.00;60.50;;;;;;6217751;28;20029;-72
2022/09/08 14:12:26;;;;;;;0.75;0.68;;;22.00;60.50;;;;;;6218579;28;20403;-72
2022/09/08 14:15:28;;;;;;;1.05;0.88;;;22.00;60.60;;;;;;6218669;28;20067;-72
2022/09/08 14:18:43;;;;;;;1.05;0.90;;;22.00;60.50;;;;;;6218330;28;20022;-72
2022/09/08 14:21:56;;;;;;;1.55;0.98;;;22.00;60.40;;;;;;6218162;28;20026;-72
2022/09/08 14:25:31;;;;;;;1.23;0.88;;;22.00;60.40;;;;;;6217799;28;20041;-72
2022/09/08 14:28:42;;;;;;;1.33;1.17;;;22.00;60.40;;;;;;6216645;28;20217;-72
2022/09/08 14:32:06;;;;;;;1.25;1.05;;;22.00;60.50;;;;;;6291750;28;20029;-72
2022/09/08 14:35:34;;;;;;;1.30;1.10;;;22.00;60.40;;;;;;6293133;28;20064;-72
2022/09/08 14:38:42;;;;;;;1.38;0.90;;;22.00;60.50;;;;;;6292792;28;20028;-72
2022/09/08 14:42:00;;;;;;;1.23;0.80;;;22.00;60.60;;;;;;6293266;28;20032;-72
2022/09/08 14:45:00;;;;;;;1.05;0.95;;;22.00;60.60;;;;;;6292445;28;20059;-72
2022/09/08 14:48:01;;;;;;;1.40;1.00;;;22.00;60.60;;;;;;6292683;28;20733;-72
2022/09/08 14:51:33;;;;;;;1.48;1.00;;;22.00;60.60;;;;;;6292348;28;20044;-72
2022/09/08 14:54:53;;;;;;;1.02;0.88;;;22.00;60.70;;;;;;6292756;28;20510;-72
2022/09/08 14:58:39;;;;;;;1.52;0.95;;;22.00;60.80;;;;;;6292932;28;20035;-72
2022/09/08 15:01:48;;;;;;;1.45;1.13;;;22.00;60.70;;;;;;6249417;28;20042;-72
2022/09/08 15:04:49;;;;;;;1.10;0.93;;;22.00;60.70;;;;;;6204130;28;20030;-72
2022/09/08 15:07:59;;;;;;;0.80;0.80;;;22.00;60.80;;;;;;6218052;28;20025;-72
2022/09/08 15:11:27;;;;;;;1.27;0.80;;;22.00;60.80;;;;;;6218351;28;20029;-72
2022/09/08 15:14:46;;;;;;;1.50;1.20;;;22.00;60.80;;;;;;6217660;28;20104;-72
2022/09/08 15:17:54;;;;;;;0.93;0.82;;;22.00;60.80;;;;;;6223166;28;20034;-72
2022/09/08 15:21:45;;;;;;;0.85;0.80;;;22.00;60.80;;;;;;6216961;28;20029;-72
2022/09/08 15:24:49;;;;;;;1.08;0.82;;;22.00;60.80;;;;;;6284177;28;20016;-73
2022/09/08 15:27:51;;;;;;;1.30;0.90;;;22.00;60.80;;;;;;6221026;28;20041;-71
2022/09/08 15:31:18;;;;;;;0.85;0.85;;;22.00;60.80;;;;;;6219956;28;20022;-72
2022/09/08 15:34:27;;;;;;;1.75;1.00;;;22.00;60.80;;;;;;6245053;28;20045;-73
2022/09/08 15:37:47;;;;;;;1.08;0.98;;;22.00;60.80;;;;;;6221992;28;20052;-72
2022/09/08 15:41:10;;;;;;;1.77;0.90;;;22.00;60.80;;;;;;6221980;28;20034;-72
2022/09/08 15:44:38;;;;;;;0.95;0.90;;;22.00;60.80;;;;;;6221296;28;20046;-72
2022/09/08 15:47:42;;;;;;;0.85;0.75;;;22.00;60.80;;;;;;6189997;28;20034;-72
2022/09/08 15:51:10;;;;;;;1.37;1.10;;;22.00;60.80;;;;;;6209213;28;20049;-72
2022/09/08 15:54:34;;;;;;;1.30;1.00;;;22.00;60.80;;;;;;6221337;28;20492;-72
2022/09/08 15:57:55;;;;;;;1.30;0.90;;;22.00;60.80;;;;;;6197113;28;20027;-72
2022/09/08 16:01:16;;;;;;;1.42;0.90;;;22.00;60.80;;;;;;6212460;28;20026;-72
2022/09/08 16:04:26;;;;;;;2.83;0.77;;;22.00;60.80;;;;;;6221450;28;20029;-72
2022/09/08 16:07:45;;;;;;;1.20;1.00;;;22.00;60.80;;;;;;6219782;28;20022;-72
2022/09/08 16:11:12;;;;;;;0.80;0.80;;;22.00;60.80;;;;;;6221438;28;20036;-72
2022/09/08 16:14:42;;;;;;;2.47;1.25;;;22.00;60.80;;;;;;6244605;28;20057;-72
2022/09/08 16:18:21;;;;;;;2.17;0.90;;;22.00;60.80;;;;;;6197408;28;20034;-72
2022/09/08 16:21:25;;;;;;;1.40;1.02;;;22.00;60.80;;;;;;6207984;28;20029;-72
2022/09/08 16:24:39;;;;;;;1.48;1.10;;;22.00;60.80;;;;;;6218964;28;20030;-72
2022/09/08 16:27:57;;;;;;;1.27;1.00;;;22.00;60.80;;;;;;6219106;28;20022;-72
2022/09/08 16:31:17;;;;;;;1.20;1.00;;;22.00;60.80;;;;;;6219011;28;20555;-73
2022/09/08 16:34:28;;;;;;;1.63;1.00;;;22.00;60.80;;;;;;6218612;28;20519;-72
2022/09/08 16:37:34;;;;;;;1.73;0.90;;;22.00;60.80;;;;;;6217634;28;20026;-72
2022/09/08 16:40:51;;;;;;;1.52;1.10;;;22.00;60.80;;;;;;6218450;28;20448;-72
2022/09/08 16:44:01;;;;;;;1.90;0.80;;;22.00;60.80;;;;;;6216070;28;20044;-72